Warning: Javascript must be enabled to use all the features on this page!


Page Loading - Please Wait...

* We've detected you're using a mobile device. Find our Next Generation Station Page here.
Click to hideNews Bulletins

Peak Streamflow for the Nation

USGS 07182510 NEOSHO R AT BURLINGTON, KS

Coffey County, Kansas
Hydrologic Unit Code 11070204
Latitude  38°11'40", Longitude  95°44'06" NAD27
Drainage area 3,042  square miles
Contributing drainage area 3,042  square miles
Gage datum 983.95 feet above NAVD88
Output formats
Table
Graph
Tab-separated file
peakfq (watstore) format
Reselect output format
Water
Year
Date Gage
Height
(feet)
Stream-
flow
(cfs)
1961 1961-09-13 31.53 26,200
1962 1962-09-28 31.36 24,800
1963 1963-06-20 15.56 5,7706
1964 1964-06-18 14.80 5,2006
1965 1965-06-08 27.49 16,0006
1966 1965-10-01 19.31 8,9506
1967 1967-07-14 22.70 11,7006
1968 1967-10-12 22.33 11,4006
1969 1969-05-05 23.18 12,0006
1970 1970-04-27 20.95 10,5006
1971 1971-06-22 22.78 11,7006
1972 1972-05-05 22.27 12,4006
1973 1973-03-29 25.40 15,3006
1974 1973-10-11 24.29 14,3006
1975 1975-06-27 22.81 12,9006
1976 1976-05-01 18.65 9,6206
1977 1977-07-04 23.08 13,4006
1978 1978-03-29 14.48 6,7806
1979 1979-06-12 19.66 10,6006
1980 1980-04-12 19.94 10,8006
1981 1981-07-06 16.06 7,8506
1982 1982-06-17 19.80 11,4006
1983 1983-04-19 20.94 12,2006
1984 1984-04-16 20.56 11,5006
1985 1985-09-25 20.61 11,6006
1986 1985-11-04 20.52 12,0006
1987 1987-03-05 20.94 12,2006
1988 1988-04-08 20.86 12,1006
1989 1989-09-01 16.12 8,4706
1990 1990-06-08 20.49 11,9006
1991 1991-05-29 9.76 2,6006
1992 1992-07-30 19.20 11,3006
1993 1993-05-17 26.41 16,6006
1994 1994-05-04 15.73 8,3106
1995 1995-06-01 23.38 15,4006
1996 1996-06-07 18.46 10,9006
1997 1997-04-17 15.54 8,1206
1998 1998-04-09 13.79 6,5706
1999 1998-11-06 29.84 23,4006
2000 2000-02-29 13.93 6,3806
2001 2001-03-19 14.84 7,2106
2002 2002-06-18 13.11 5,6406
2003 2003-04-28 17.07 10,2006
2004 2004-03-10 20.14 13,4006
2005 2005-05-19 21.57 14,9006
2006 2006-05-09 11.84 5,1806
2007 2007-06-08 19.92 12,8006
2008 2008-09-18 15.58 8,7206
2009 2009-06-16 15.92 9,2706
2010 2010-06-30 19.07 12,7006
2011 2011-01-04 11.58 4,9106
2012 2012-03-27 14.53 8,1706
2013 2013-08-14 20.01 13,2006
2014 2014-06-11 12.63 5,5906
2015 2015-06-08 18.96 12,9006
2016 2016-06-07 18.75 12,7006
2017 2017-04-08 17.43 11,4006
2018 2018-09-05 10.75 3,9606
2019 2019-05-26 32.73 36,5006
2020 2020-08-03 16.41 10,2006
2021 2021-05-23 18.375 12,3002,6
2022 2022-06-12 19.37 13,3006
2023 2023-03-10 10.04 3,3006
?
  Peak Gage-Height Qualification Codes.
?
  Peak Streamflow Qualification Codes.